sensor_id;sensor_type;location;lat;lon;timestamp;temperature;humidity
34135;DHT22;20410;55.578;12.968;2023-06-14T00:00:47;16.20;1.00
34135;DHT22;20410;55.578;12.968;2023-06-14T00:03:14;16.20;1.00
34135;DHT22;20410;55.578;12.968;2023-06-14T00:05:43;16.20;1.00
34135;DHT22;20410;55.578;12.968;2023-06-14T00:08:10;16.20;1.00
34135;DHT22;20410;55.578;12.968;2023-06-14T00:10:36;16.20;1.00
34135;DHT22;20410;55.578;12.968;2023-06-14T00:13:05;16.20;1.00
34135;DHT22;20410;55.578;12.968;2023-06-14T00:15:33;16.20;1.00
34135;DHT22;20410;55.578;12.968;2023-06-14T00:17:58;16.10;1.00
34135;DHT22;20410;55.578;12.968;2023-06-14T00:20:28;16.10;1.00
34135;DHT22;20410;55.578;12.968;2023-06-14T00:22:54;16.00;1.00
34135;DHT22;20410;55.578;12.968;2023-06-14T00:25:23;16.00;1.00
34135;DHT22;20410;55.578;12.968;2023-06-14T00:27:53;15.90;1.00
34135;DHT22;20410;55.578;12.968;2023-06-14T00:30:19;15.90;1.00
34135;DHT22;20410;55.578;12.968;2023-06-14T00:32:45;15.90;1.00
34135;DHT22;20410;55.578;12.968;2023-06-14T00:35:11;15.90;1.00
34135;DHT22;20410;55.578;12.968;2023-06-14T00:37:37;15.80;1.00
34135;DHT22;20410;55.578;12.968;2023-06-14T00:40:04;15.80;1.00
34135;DHT22;20410;55.578;12.968;2023-06-14T00:42:30;15.70;1.00
34135;DHT22;20410;55.578;12.968;2023-06-14T00:44:56;15.70;1.00
34135;DHT22;20410;55.578;12.968;2023-06-14T00:47:22;15.60;1.00
34135;DHT22;20410;55.578;12.968;2023-06-14T00:49:48;15.60;1.00
34135;DHT22;20410;55.578;12.968;2023-06-14T00:52:16;15.60;1.00
34135;DHT22;20410;55.578;12.968;2023-06-14T00:54:42;15.60;1.00
34135;DHT22;20410;55.578;12.968;2023-06-14T00:57:08;15.50;1.00
34135;DHT22;20410;55.578;12.968;2023-06-14T00:59:45;15.30;1.00
34135;DHT22;20410;55.578;12.968;2023-06-14T01:02:11;15.20;1.00
34135;DHT22;20410;55.578;12.968;2023-06-14T01:04:38;15.20;1.00
34135;DHT22;20410;55.578;12.968;2023-06-14T01:13:23;15.10;1.00
34135;DHT22;20410;55.578;12.968;2023-06-14T01:15:52;15.10;1.00
34135;DHT22;20410;55.578;12.968;2023-06-14T01:18:18;15.00;1.00
34135;DHT22;20410;55.578;12.968;2023-06-14T01:20:45;15.10;1.00
34135;DHT22;20410;55.578;12.968;2023-06-14T01:23:19;15.10;1.00
34135;DHT22;20410;55.578;12.968;2023-06-14T01:25:45;15.10;1.00
34135;DHT22;20410;55.578;12.968;2023-06-14T01:28:13;15.10;1.00
34135;DHT22;20410;55.578;12.968;2023-06-14T01:30:44;15.10;1.00
34135;DHT22;20410;55.578;12.968;2023-06-14T01:33:19;15.10;1.00
34135;DHT22;20410;55.578;12.968;2023-06-14T01:35:51;15.00;1.00
34135;DHT22;20410;55.578;12.968;2023-06-14T01:38:22;14.80;1.00
34135;DHT22;20410;55.578;12.968;2023-06-14T01:40:49;14.80;1.00
34135;DHT22;20410;55.578;12.968;2023-06-14T01:43:16;14.80;1.00
34135;DHT22;20410;55.578;12.968;2023-06-14T01:45:45;14.70;1.00
34135;DHT22;20410;55.578;12.968;2023-06-14T01:48:12;14.80;1.00
34135;DHT22;20410;55.578;12.968;2023-06-14T01:50:38;14.80;1.00
34135;DHT22;20410;55.578;12.968;2023-06-14T01:53:07;14.80;1.00
34135;DHT22;20410;55.578;12.968;2023-06-14T01:55:33;14.90;1.00
34135;DHT22;20410;55.578;12.968;2023-06-14T01:58:05;14.90;1.00
34135;DHT22;20410;55.578;12.968;2023-06-14T02:00:31;14.90;1.00
34135;DHT22;20410;55.578;12.968;2023-06-14T02:02:56;14.90;1.00
34135;DHT22;20410;55.578;12.968;2023-06-14T02:05:22;14.90;1.00
34135;DHT22;20410;55.578;12.968;2023-06-14T02:07:48;15.00;1.00
34135;DHT22;20410;55.578;12.968;2023-06-14T02:10:14;14.90;1.00
34135;DHT22;20410;55.578;12.968;2023-06-14T02:12:40;14.90;1.00
34135;DHT22;20410;55.578;12.968;2023-06-14T02:15:06;14.90;1.00
34135;DHT22;20410;55.578;12.968;2023-06-14T02:17:32;14.90;1.00
34135;DHT22;20410;55.578;12.968;2023-06-14T02:19:59;14.90;1.00
34135;DHT22;20410;55.578;12.968;2023-06-14T02:22:25;15.00;1.00
34135;DHT22;20410;55.578;12.968;2023-06-14T02:24:50;15.00;1.00
34135;DHT22;20410;55.578;12.968;2023-06-14T02:27:16;15.00;1.00
34135;DHT22;20410;55.578;12.968;2023-06-14T02:29:42;15.10;1.00
34135;DHT22;20410;55.578;12.968;2023-06-14T02:32:08;15.10;1.00
34135;DHT22;20410;55.578;12.968;2023-06-14T02:34:34;15.10;1.00
34135;DHT22;20410;55.578;12.968;2023-06-14T02:37:01;15.00;1.00
34135;DHT22;20410;55.578;12.968;2023-06-14T02:39:28;15.00;1.00
34135;DHT22;20410;55.578;12.968;2023-06-14T02:41:54;15.00;1.00
34135;DHT22;20410;55.578;12.968;2023-06-14T02:44:23;14.90;1.00
34135;DHT22;20410;55.578;12.968;2023-06-14T02:46:50;15.00;1.00
34135;DHT22;20410;55.578;12.968;2023-06-14T02:49:16;15.00;1.00
34135;DHT22;20410;55.578;12.968;2023-06-14T02:51:42;15.00;1.00
34135;DHT22;20410;55.578;12.968;2023-06-14T02:54:07;15.00;1.00
34135;DHT22;20410;55.578;12.968;2023-06-14T02:56:33;15.00;1.00
34135;DHT22;20410;55.578;12.968;2023-06-14T02:58:58;15.10;1.00
34135;DHT22;20410;55.578;12.968;2023-06-14T03:01:27;15.00;1.00
34135;DHT22;20410;55.578;12.968;2023-06-14T03:04:03;15.00;1.00
34135;DHT22;20410;55.578;12.968;2023-06-14T03:06:29;14.80;1.00
34135;DHT22;20410;55.578;12.968;2023-06-14T03:08:56;14.80;1.00
34135;DHT22;20410;55.578;12.968;2023-06-14T03:11:25;14.80;1.00
34135;DHT22;20410;55.578;12.968;2023-06-14T03:13:52;14.70;1.00
34135;DHT22;20410;55.578;12.968;2023-06-14T03:16:18;14.80;1.00
34135;DHT22;20410;55.578;12.968;2023-06-14T03:18:50;14.80;1.00
34135;DHT22;20410;55.578;12.968;2023-06-14T03:21:15;14.90;1.00
34135;DHT22;20410;55.578;12.968;2023-06-14T03:23:44;15.00;1.00
34135;DHT22;20410;55.578;12.968;2023-06-14T03:26:10;15.10;1.00
34135;DHT22;20410;55.578;12.968;2023-06-14T03:28:39;15.20;1.00
34135;DHT22;20410;55.578;12.968;2023-06-14T03:31:05;15.30;1.00
34135;DHT22;20410;55.578;12.968;2023-06-14T03:33:31;15.30;1.00
34135;DHT22;20410;55.578;12.968;2023-06-14T03:35:57;15.40;1.00
34135;DHT22;20410;55.578;12.968;2023-06-14T03:38:22;15.50;1.00
34135;DHT22;20410;55.578;12.968;2023-06-14T03:40:48;15.60;1.00
34135;DHT22;20410;55.578;12.968;2023-06-14T03:43:14;15.70;1.00
34135;DHT22;20410;55.578;12.968;2023-06-14T03:45:40;15.80;1.00
34135;DHT22;20410;55.578;12.968;2023-06-14T03:48:05;15.90;1.00
34135;DHT22;20410;55.578;12.968;2023-06-14T03:50:32;15.90;1.00
34135;DHT22;20410;55.578;12.968;2023-06-14T03:52:58;16.00;1.00
34135;DHT22;20410;55.578;12.968;2023-06-14T03:55:23;16.00;1.00
34135;DHT22;20410;55.578;12.968;2023-06-14T03:57:51;16.20;1.00
34135;DHT22;20410;55.578;12.968;2023-06-14T04:00:17;16.30;1.00
34135;DHT22;20410;55.578;12.968;2023-06-14T04:02:43;16.40;1.00
34135;DHT22;20410;55.578;12.968;2023-06-14T04:05:10;16.40;1.00
34135;DHT22;20410;55.578;12.968;2023-06-14T04:07:35;16.50;1.00
34135;DHT22;20410;55.578;12.968;2023-06-14T04:10:06;16.50;1.00
34135;DHT22;20410;55.578;12.968;2023-06-14T04:12:33;16.50;1.00
34135;DHT22;20410;55.578;12.968;2023-06-14T04:14:58;16.50;1.00
34135;DHT22;20410;55.578;12.968;2023-06-14T04:17:24;16.60;1.00
34135;DHT22;20410;55.578;12.968;2023-06-14T04:19:50;16.70;1.00
34135;DHT22;20410;55.578;12.968;2023-06-14T04:22:15;16.70;1.00
34135;DHT22;20410;55.578;12.968;2023-06-14T04:24:41;16.80;1.00
34135;DHT22;20410;55.578;12.968;2023-06-14T04:27:07;16.90;1.00
34135;DHT22;20410;55.578;12.968;2023-06-14T04:29:33;17.00;1.00
34135;DHT22;20410;55.578;12.968;2023-06-14T04:31:59;17.00;1.00
34135;DHT22;20410;55.578;12.968;2023-06-14T04:34:28;17.00;1.00
34135;DHT22;20410;55.578;12.968;2023-06-14T04:36:59;17.00;1.00
34135;DHT22;20410;55.578;12.968;2023-06-14T04:39:26;17.00;1.00
34135;DHT22;20410;55.578;12.968;2023-06-14T04:41:53;16.90;1.00
34135;DHT22;20410;55.578;12.968;2023-06-14T04:44:23;16.90;1.00
34135;DHT22;20410;55.578;12.968;2023-06-14T04:46:56;17.10;1.00
34135;DHT22;20410;55.578;12.968;2023-06-14T04:49:21;17.20;1.00
34135;DHT22;20410;55.578;12.968;2023-06-14T04:51:48;17.30;1.00
34135;DHT22;20410;55.578;12.968;2023-06-14T04:54:23;17.40;1.00
34135;DHT22;20410;55.578;12.968;2023-06-14T04:56:50;17.40;1.00
34135;DHT22;20410;55.578;12.968;2023-06-14T04:59:15;17.40;1.00
34135;DHT22;20410;55.578;12.968;2023-06-14T05:01:42;17.50;1.00
34135;DHT22;20410;55.578;12.968;2023-06-14T05:04:14;17.60;1.00
34135;DHT22;20410;55.578;12.968;2023-06-14T05:06:41;17.60;1.00
34135;DHT22;20410;55.578;12.968;2023-06-14T05:09:07;17.70;1.00
34135;DHT22;20410;55.578;12.968;2023-06-14T05:11:32;17.80;1.00
34135;DHT22;20410;55.578;12.968;2023-06-14T05:13:58;17.80;1.00
34135;DHT22;20410;55.578;12.968;2023-06-14T05:16:24;17.90;1.00
34135;DHT22;20410;55.578;12.968;2023-06-14T05:18:51;18.00;1.00
34135;DHT22;20410;55.578;12.968;2023-06-14T05:21:17;18.00;1.00
34135;DHT22;20410;55.578;12.968;2023-06-14T05:23:46;18.20;1.00
34135;DHT22;20410;55.578;12.968;2023-06-14T05:26:12;18.30;1.00
34135;DHT22;20410;55.578;12.968;2023-06-14T05:28:38;18.50;1.00
34135;DHT22;20410;55.578;12.968;2023-06-14T05:31:03;18.50;1.00
34135;DHT22;20410;55.578;12.968;2023-06-14T05:33:29;18.70;1.00
34135;DHT22;20410;55.578;12.968;2023-06-14T05:35:55;18.80;1.00
34135;DHT22;20410;55.578;12.968;2023-06-14T05:38:21;18.80;1.00
34135;DHT22;20410;55.578;12.968;2023-06-14T05:40:46;18.90;1.00
34135;DHT22;20410;55.578;12.968;2023-06-14T05:43:12;19.00;1.00
34135;DHT22;20410;55.578;12.968;2023-06-14T05:45:37;18.90;1.00
34135;DHT22;20410;55.578;12.968;2023-06-14T05:48:03;18.90;1.00
34135;DHT22;20410;55.578;12.968;2023-06-14T05:50:29;18.80;1.00
34135;DHT22;20410;55.578;12.968;2023-06-14T05:52:55;18.80;1.00
34135;DHT22;20410;55.578;12.968;2023-06-14T05:55:20;18.90;1.00
34135;DHT22;20410;55.578;12.968;2023-06-14T05:57:47;19.00;1.00
34135;DHT22;20410;55.578;12.968;2023-06-14T06:00:14;19.10;1.00
34135;DHT22;20410;55.578;12.968;2023-06-14T06:02:41;19.10;1.00
34135;DHT22;20410;55.578;12.968;2023-06-14T06:05:09;19.00;1.00
34135;DHT22;20410;55.578;12.968;2023-06-14T06:07:35;19.00;1.00
34135;DHT22;20410;55.578;12.968;2023-06-14T06:10:01;19.00;1.00
34135;DHT22;20410;55.578;12.968;2023-06-14T06:12:26;19.10;1.00
34135;DHT22;20410;55.578;12.968;2023-06-14T06:14:52;19.20;99.90
34135;DHT22;20410;55.578;12.968;2023-06-14T06:17:17;19.20;99.90
34135;DHT22;20410;55.578;12.968;2023-06-14T06:19:43;19.30;99.90
34135;DHT22;20410;55.578;12.968;2023-06-14T06:22:09;19.40;99.90
34135;DHT22;20410;55.578;12.968;2023-06-14T06:24:34;19.50;99.90
34135;DHT22;20410;55.578;12.968;2023-06-14T06:27:00;19.50;99.90
34135;DHT22;20410;55.578;12.968;2023-06-14T06:29:26;19.70;99.90
34135;DHT22;20410;55.578;12.968;2023-06-14T06:31:51;19.80;99.90
34135;DHT22;20410;55.578;12.968;2023-06-14T06:34:17;20.00;1.00
34135;DHT22;20410;55.578;12.968;2023-06-14T06:36:42;20.00;1.00
34135;DHT22;20410;55.578;12.968;2023-06-14T06:39:08;20.10;1.00
34135;DHT22;20410;55.578;12.968;2023-06-14T06:41:38;20.10;1.00
34135;DHT22;20410;55.578;12.968;2023-06-14T06:44:05;20.20;1.00
34135;DHT22;20410;55.578;12.968;2023-06-14T06:46:32;20.40;1.00
34135;DHT22;20410;55.578;12.968;2023-06-14T06:48:57;20.50;1.00
34135;DHT22;20410;55.578;12.968;2023-06-14T06:51:23;20.60;1.00
34135;DHT22;20410;55.578;12.968;2023-06-14T06:53:53;20.70;1.00
34135;DHT22;20410;55.578;12.968;2023-06-14T06:56:19;20.60;1.00
34135;DHT22;20410;55.578;12.968;2023-06-14T06:58:45;20.60;1.00
34135;DHT22;20410;55.578;12.968;2023-06-14T07:01:10;20.70;1.00
34135;DHT22;20410;55.578;12.968;2023-06-14T07:03:37;20.80;1.00
34135;DHT22;20410;55.578;12.968;2023-06-14T07:06:02;20.80;1.00
34135;DHT22;20410;55.578;12.968;2023-06-14T07:08:28;20.80;1.00
34135;DHT22;20410;55.578;12.968;2023-06-14T07:10:54;20.90;1.00
34135;DHT22;20410;55.578;12.968;2023-06-14T07:13:19;21.00;1.00
34135;DHT22;20410;55.578;12.968;2023-06-14T07:15:45;21.20;1.00
34135;DHT22;20410;55.578;12.968;2023-06-14T07:18:11;21.30;1.00
34135;DHT22;20410;55.578;12.968;2023-06-14T07:20:37;21.30;1.00
34135;DHT22;20410;55.578;12.968;2023-06-14T07:23:05;21.30;99.90
34135;DHT22;20410;55.578;12.968;2023-06-14T07:25:31;21.20;99.90
34135;DHT22;20410;55.578;12.968;2023-06-14T07:27:57;21.30;99.90
34135;DHT22;20410;55.578;12.968;2023-06-14T07:30:23;21.30;99.90
34135;DHT22;20410;55.578;12.968;2023-06-14T07:32:52;21.40;99.90
34135;DHT22;20410;55.578;12.968;2023-06-14T07:35:18;21.60;99.90
34135;DHT22;20410;55.578;12.968;2023-06-14T07:37:43;21.70;99.90
34135;DHT22;20410;55.578;12.968;2023-06-14T07:40:11;21.70;99.90
34135;DHT22;20410;55.578;12.968;2023-06-14T07:42:36;21.70;99.90
34135;DHT22;20410;55.578;12.968;2023-06-14T07:45:03;21.70;99.90
34135;DHT22;20410;55.578;12.968;2023-06-14T07:47:29;21.80;99.90
34135;DHT22;20410;55.578;12.968;2023-06-14T07:49:55;22.00;99.90
34135;DHT22;20410;55.578;12.968;2023-06-14T07:52:20;22.10;99.90
34135;DHT22;20410;55.578;12.968;2023-06-14T07:54:46;21.90;1.00
34135;DHT22;20410;55.578;12.968;2023-06-14T07:57:12;21.90;1.00
34135;DHT22;20410;55.578;12.968;2023-06-14T07:59:37;21.80;1.00
34135;DHT22;20410;55.578;12.968;2023-06-14T08:02:03;21.70;1.00
34135;DHT22;20410;55.578;12.968;2023-06-14T08:04:29;21.70;1.00
34135;DHT22;20410;55.578;12.968;2023-06-14T08:06:55;21.70;1.00
34135;DHT22;20410;55.578;12.968;2023-06-14T08:09:21;21.90;1.00
34135;DHT22;20410;55.578;12.968;2023-06-14T08:11:47;21.90;1.00
34135;DHT22;20410;55.578;12.968;2023-06-14T08:14:13;21.70;99.90
34135;DHT22;20410;55.578;12.968;2023-06-14T08:16:38;21.70;99.90
34135;DHT22;20410;55.578;12.968;2023-06-14T08:19:04;21.60;99.90
34135;DHT22;20410;55.578;12.968;2023-06-14T08:21:30;21.60;1.00
34135;DHT22;20410;55.578;12.968;2023-06-14T08:23:55;21.50;1.00
34135;DHT22;20410;55.578;12.968;2023-06-14T08:26:21;21.40;1.00
34135;DHT22;20410;55.578;12.968;2023-06-14T08:28:47;21.40;99.90
34135;DHT22;20410;55.578;12.968;2023-06-14T08:31:13;21.60;1.00
34135;DHT22;20410;55.578;12.968;2023-06-14T08:33:39;21.80;1.00
34135;DHT22;20410;55.578;12.968;2023-06-14T08:36:08;22.00;1.00
34135;DHT22;20410;55.578;12.968;2023-06-14T08:38:34;22.10;99.90
34135;DHT22;20410;55.578;12.968;2023-06-14T08:41:01;22.10;99.90
34135;DHT22;20410;55.578;12.968;2023-06-14T08:43:27;21.90;99.90
34135;DHT22;20410;55.578;12.968;2023-06-14T08:45:58;21.90;99.90
34135;DHT22;20410;55.578;12.968;2023-06-14T08:48:26;22.00;99.90
34135;DHT22;20410;55.578;12.968;2023-06-14T08:50:56;22.00;1.00
34135;DHT22;20410;55.578;12.968;2023-06-14T08:53:37;22.10;99.90
34135;DHT22;20410;55.578;12.968;2023-06-14T08:56:08;22.10;1.00
34135;DHT22;20410;55.578;12.968;2023-06-14T08:58:44;22.10;99.90
34135;DHT22;20410;55.578;12.968;2023-06-14T09:01:13;22.20;1.00
34135;DHT22;20410;55.578;12.968;2023-06-14T09:03:40;22.20;1.00
34135;DHT22;20410;55.578;12.968;2023-06-14T09:06:07;22.30;1.00
34135;DHT22;20410;55.578;12.968;2023-06-14T09:08:34;22.20;99.90
34135;DHT22;20410;55.578;12.968;2023-06-14T09:11:01;22.10;1.00
34135;DHT22;20410;55.578;12.968;2023-06-14T09:13:27;22.10;1.00
34135;DHT22;20410;55.578;12.968;2023-06-14T09:15:53;22.20;1.00
34135;DHT22;20410;55.578;12.968;2023-06-14T09:18:20;22.40;1.00
34135;DHT22;20410;55.578;12.968;2023-06-14T09:20:46;22.50;1.00
34135;DHT22;20410;55.578;12.968;2023-06-14T09:23:13;22.60;99.90
34135;DHT22;20410;55.578;12.968;2023-06-14T09:25:48;22.60;99.90
34135;DHT22;20410;55.578;12.968;2023-06-14T09:28:13;22.50;99.90
34135;DHT22;20410;55.578;12.968;2023-06-14T09:30:39;22.40;99.90
34135;DHT22;20410;55.578;12.968;2023-06-14T09:33:05;22.60;99.90
34135;DHT22;20410;55.578;12.968;2023-06-14T09:35:32;22.60;99.90
34135;DHT22;20410;55.578;12.968;2023-06-14T09:37:57;22.60;99.90
34135;DHT22;20410;55.578;12.968;2023-06-14T09:40:24;22.70;99.90
34135;DHT22;20410;55.578;12.968;2023-06-14T09:42:49;22.80;99.90
34135;DHT22;20410;55.578;12.968;2023-06-14T09:45:16;22.70;99.90
34135;DHT22;20410;55.578;12.968;2023-06-14T09:47:49;22.80;99.90
34135;DHT22;20410;55.578;12.968;2023-06-14T09:50:14;23.00;99.90
34135;DHT22;20410;55.578;12.968;2023-06-14T09:52:43;23.00;99.90
34135;DHT22;20410;55.578;12.968;2023-06-14T09:55:12;23.10;99.90
34135;DHT22;20410;55.578;12.968;2023-06-14T09:57:41;23.30;99.90
34135;DHT22;20410;55.578;12.968;2023-06-14T10:00:07;23.40;99.90
34135;DHT22;20410;55.578;12.968;2023-06-14T10:02:37;23.30;99.90
34135;DHT22;20410;55.578;12.968;2023-06-14T10:05:08;23.30;99.90
34135;DHT22;20410;55.578;12.968;2023-06-14T10:08:03;23.20;99.90
34135;DHT22;20410;55.578;12.968;2023-06-14T10:10:30;23.20;99.90
34135;DHT22;20410;55.578;12.968;2023-06-14T10:12:56;23.20;99.90
34135;DHT22;20410;55.578;12.968;2023-06-14T10:18:26;23.30;99.90
34135;DHT22;20410;55.578;12.968;2023-06-14T10:23:22;23.40;99.90
34135;DHT22;20410;55.578;12.968;2023-06-14T10:25:57;23.20;99.90
34135;DHT22;20410;55.578;12.968;2023-06-14T10:28:23;23.30;99.90
34135;DHT22;20410;55.578;12.968;2023-06-14T10:31:08;23.40;99.90
34135;DHT22;20410;55.578;12.968;2023-06-14T10:38:58;23.30;99.90
34135;DHT22;20410;55.578;12.968;2023-06-14T10:41:26;23.20;99.90
34135;DHT22;20410;55.578;12.968;2023-06-14T10:44:10;23.30;99.90
34135;DHT22;20410;55.578;12.968;2023-06-14T10:46:36;23.40;99.90
34135;DHT22;20410;55.578;12.968;2023-06-14T10:49:01;23.50;99.90
34135;DHT22;20410;55.578;12.968;2023-06-14T10:51:29;23.50;99.90
34135;DHT22;20410;55.578;12.968;2023-06-14T10:53:57;23.50;99.90
34135;DHT22;20410;55.578;12.968;2023-06-14T10:56:29;23.50;99.90
34135;DHT22;20410;55.578;12.968;2023-06-14T10:58:57;23.70;99.90
34135;DHT22;20410;55.578;12.968;2023-06-14T11:01:37;23.80;99.90
34135;DHT22;20410;55.578;12.968;2023-06-14T11:04:07;23.60;99.90
34135;DHT22;20410;55.578;12.968;2023-06-14T11:06:49;23.60;99.90
34135;DHT22;20410;55.578;12.968;2023-06-14T11:09:38;23.50;99.90
34135;DHT22;20410;55.578;12.968;2023-06-14T11:12:10;23.60;99.90
34135;DHT22;20410;55.578;12.968;2023-06-14T11:14:38;23.80;99.90
34135;DHT22;20410;55.578;12.968;2023-06-14T11:17:04;23.90;99.90
34135;DHT22;20410;55.578;12.968;2023-06-14T11:19:29;24.00;99.90
34135;DHT22;20410;55.578;12.968;2023-06-14T11:21:55;24.10;99.90
34135;DHT22;20410;55.578;12.968;2023-06-14T11:24:21;24.20;99.90
34135;DHT22;20410;55.578;12.968;2023-06-14T11:26:47;24.00;99.90
34135;DHT22;20410;55.578;12.968;2023-06-14T11:29:15;24.00;99.90
34135;DHT22;20410;55.578;12.968;2023-06-14T11:31:45;24.10;99.90
34135;DHT22;20410;55.578;12.968;2023-06-14T11:34:12;23.80;99.90
34135;DHT22;20410;55.578;12.968;2023-06-14T11:36:38;23.70;99.90
34135;DHT22;20410;55.578;12.968;2023-06-14T11:39:05;23.90;99.90
34135;DHT22;20410;55.578;12.968;2023-06-14T11:41:40;24.00;99.90
34135;DHT22;20410;55.578;12.968;2023-06-14T11:44:06;23.90;99.90
34135;DHT22;20410;55.578;12.968;2023-06-14T11:46:32;24.00;99.90
34135;DHT22;20410;55.578;12.968;2023-06-14T11:48:58;23.80;99.90
34135;DHT22;20410;55.578;12.968;2023-06-14T11:51:24;23.70;99.90
34135;DHT22;20410;55.578;12.968;2023-06-14T11:53:49;23.80;99.90
34135;DHT22;20410;55.578;12.968;2023-06-14T11:56:15;23.90;99.90
34135;DHT22;20410;55.578;12.968;2023-06-14T11:58:43;24.00;99.90
34135;DHT22;20410;55.578;12.968;2023-06-14T12:01:09;24.20;99.90
34135;DHT22;20410;55.578;12.968;2023-06-14T12:03:34;24.30;99.90
34135;DHT22;20410;55.578;12.968;2023-06-14T12:06:07;24.30;99.90
34135;DHT22;20410;55.578;12.968;2023-06-14T12:08:37;24.20;99.90
34135;DHT22;20410;55.578;12.968;2023-06-14T12:11:07;24.20;99.90
34135;DHT22;20410;55.578;12.968;2023-06-14T12:13:38;24.00;99.90
34135;DHT22;20410;55.578;12.968;2023-06-14T12:16:07;24.10;99.90
34135;DHT22;20410;55.578;12.968;2023-06-14T12:18:39;24.10;99.90
34135;DHT22;20410;55.578;12.968;2023-06-14T12:21:08;23.90;99.90
34135;DHT22;20410;55.578;12.968;2023-06-14T12:23:48;23.90;99.90
34135;DHT22;20410;55.578;12.968;2023-06-14T12:26:18;23.80;99.90
34135;DHT22;20410;55.578;12.968;2023-06-14T12:28:47;23.80;99.90
34135;DHT22;20410;55.578;12.968;2023-06-14T12:31:15;23.80;99.90
34135;DHT22;20410;55.578;12.968;2023-06-14T12:33:41;23.90;99.90
34135;DHT22;20410;55.578;12.968;2023-06-14T12:36:08;24.00;99.90
34135;DHT22;20410;55.578;12.968;2023-06-14T12:38:34;24.10;99.90
34135;DHT22;20410;55.578;12.968;2023-06-14T12:41:00;24.10;99.90
34135;DHT22;20410;55.578;12.968;2023-06-14T12:43:26;24.30;99.90
34135;DHT22;20410;55.578;12.968;2023-06-14T12:45:52;24.20;99.90
34135;DHT22;20410;55.578;12.968;2023-06-14T12:48:18;24.30;99.90
34135;DHT22;20410;55.578;12.968;2023-06-14T12:50:44;24.10;99.90
34135;DHT22;20410;55.578;12.968;2023-06-14T12:53:10;24.00;99.90
34135;DHT22;20410;55.578;12.968;2023-06-14T12:55:36;24.00;99.90
34135;DHT22;20410;55.578;12.968;2023-06-14T12:58:02;24.20;99.90
34135;DHT22;20410;55.578;12.968;2023-06-14T13:00:27;24.20;99.90
34135;DHT22;20410;55.578;12.968;2023-06-14T13:02:55;24.30;99.90
34135;DHT22;20410;55.578;12.968;2023-06-14T13:05:21;24.50;99.90
34135;DHT22;20410;55.578;12.968;2023-06-14T13:07:46;24.90;99.90
34135;DHT22;20410;55.578;12.968;2023-06-14T13:10:12;24.90;99.90
34135;DHT22;20410;55.578;12.968;2023-06-14T13:12:38;24.90;99.90
34135;DHT22;20410;55.578;12.968;2023-06-14T13:15:04;25.10;99.90
34135;DHT22;20410;55.578;12.968;2023-06-14T13:17:29;25.20;76.20
34135;DHT22;20410;55.578;12.968;2023-06-14T13:19:55;25.40;99.90
34135;DHT22;20410;55.578;12.968;2023-06-14T13:22:21;25.80;99.90
34135;DHT22;20410;55.578;12.968;2023-06-14T13:24:47;26.30;99.90
34135;DHT22;20410;55.578;12.968;2023-06-14T13:27:12;26.70;99.90
34135;DHT22;20410;55.578;12.968;2023-06-14T13:29:40;27.00;99.90
34135;DHT22;20410;55.578;12.968;2023-06-14T13:32:06;27.10;99.90
34135;DHT22;20410;55.578;12.968;2023-06-14T13:34:31;27.10;9.50
34135;DHT22;20410;55.578;12.968;2023-06-14T13:36:57;27.00;36.10
34135;DHT22;20410;55.578;12.968;2023-06-14T13:39:25;27.20;1.00
34135;DHT22;20410;55.578;12.968;2023-06-14T13:41:50;27.30;1.00
34135;DHT22;20410;55.578;12.968;2023-06-14T13:44:16;27.50;1.00
34135;DHT22;20410;55.578;12.968;2023-06-14T13:46:44;27.50;1.00
34135;DHT22;20410;55.578;12.968;2023-06-14T13:49:10;27.60;1.00
34135;DHT22;20410;55.578;12.968;2023-06-14T13:51:36;27.60;1.00
34135;DHT22;20410;55.578;12.968;2023-06-14T13:54:01;27.50;1.00
34135;DHT22;20410;55.578;12.968;2023-06-14T13:56:27;27.60;1.00
34135;DHT22;20410;55.578;12.968;2023-06-14T13:58:53;27.80;1.00
34135;DHT22;20410;55.578;12.968;2023-06-14T14:01:18;27.80;1.00
34135;DHT22;20410;55.578;12.968;2023-06-14T14:03:48;27.80;1.00
34135;DHT22;20410;55.578;12.968;2023-06-14T14:06:15;27.80;1.00
34135;DHT22;20410;55.578;12.968;2023-06-14T14:08:41;27.90;1.00
34135;DHT22;20410;55.578;12.968;2023-06-14T14:11:07;27.80;1.00
34135;DHT22;20410;55.578;12.968;2023-06-14T14:13:34;27.90;1.00
34135;DHT22;20410;55.578;12.968;2023-06-14T14:16:02;27.80;1.00
34135;DHT22;20410;55.578;12.968;2023-06-14T14:18:28;27.60;1.00
34135;DHT22;20410;55.578;12.968;2023-06-14T14:20:54;27.40;1.00
34135;DHT22;20410;55.578;12.968;2023-06-14T14:23:19;27.20;1.00
34135;DHT22;20410;55.578;12.968;2023-06-14T14:25:46;27.10;1.00
34135;DHT22;20410;55.578;12.968;2023-06-14T14:28:11;27.10;1.00
34135;DHT22;20410;55.578;12.968;2023-06-14T14:30:39;27.20;1.00
34135;DHT22;20410;55.578;12.968;2023-06-14T14:33:05;27.40;1.00
34135;DHT22;20410;55.578;12.968;2023-06-14T14:35:32;27.50;1.00
34135;DHT22;20410;55.578;12.968;2023-06-14T14:37:58;27.30;1.00
34135;DHT22;20410;55.578;12.968;2023-06-14T14:40:23;27.40;1.00
34135;DHT22;20410;55.578;12.968;2023-06-14T14:42:49;27.40;1.00
34135;DHT22;20410;55.578;12.968;2023-06-14T14:45:15;27.40;1.00
34135;DHT22;20410;55.578;12.968;2023-06-14T14:47:40;27.30;1.00
34135;DHT22;20410;55.578;12.968;2023-06-14T14:50:06;27.40;1.00
34135;DHT22;20410;55.578;12.968;2023-06-14T14:52:35;27.70;1.00
34135;DHT22;20410;55.578;12.968;2023-06-14T14:55:00;27.80;1.00
34135;DHT22;20410;55.578;12.968;2023-06-14T14:57:26;28.00;1.00
34135;DHT22;20410;55.578;12.968;2023-06-14T14:59:52;28.10;1.00
34135;DHT22;20410;55.578;12.968;2023-06-14T15:02:18;28.00;1.00
34135;DHT22;20410;55.578;12.968;2023-06-14T15:04:44;28.00;1.00
34135;DHT22;20410;55.578;12.968;2023-06-14T15:07:10;28.00;1.00
34135;DHT22;20410;55.578;12.968;2023-06-14T15:09:36;28.10;1.00
34135;DHT22;20410;55.578;12.968;2023-06-14T15:12:01;28.10;1.00
34135;DHT22;20410;55.578;12.968;2023-06-14T15:14:28;28.20;1.00
34135;DHT22;20410;55.578;12.968;2023-06-14T15:16:53;28.20;1.00
34135;DHT22;20410;55.578;12.968;2023-06-14T15:19:19;28.20;1.00
34135;DHT22;20410;55.578;12.968;2023-06-14T15:21:45;28.20;1.00
34135;DHT22;20410;55.578;12.968;2023-06-14T15:24:10;28.20;1.00
34135;DHT22;20410;55.578;12.968;2023-06-14T15:26:36;28.40;1.00
34135;DHT22;20410;55.578;12.968;2023-06-14T15:29:01;28.40;1.00
34135;DHT22;20410;55.578;12.968;2023-06-14T15:31:27;28.40;1.00
34135;DHT22;20410;55.578;12.968;2023-06-14T15:33:54;28.30;1.00
34135;DHT22;20410;55.578;12.968;2023-06-14T15:36:20;28.30;1.00
34135;DHT22;20410;55.578;12.968;2023-06-14T15:38:45;28.20;1.00
34135;DHT22;20410;55.578;12.968;2023-06-14T15:41:11;28.00;1.00